sensor_id;sensor_type;location;lat;lon;timestamp;temperature;humidity
21085;DHT22;34247;50.064;19.970;2022-08-19T00:00:36;36.80;33.80
21085;DHT22;34247;50.064;19.970;2022-08-19T00:01:42;36.80;33.80
21085;DHT22;34247;50.064;19.970;2022-08-19T00:02:56;36.80;33.80
21085;DHT22;34247;50.064;19.970;2022-08-19T00:04:02;36.80;33.80
21085;DHT22;34247;50.064;19.970;2022-08-19T00:05:09;36.80;33.80
21085;DHT22;34247;50.064;19.970;2022-08-19T00:06:15;36.80;33.80
21085;DHT22;34247;50.064;19.970;2022-08-19T00:07:23;36.80;33.90
21085;DHT22;34247;50.064;19.970;2022-08-19T00:08:27;36.80;33.90
21085;DHT22;34247;50.064;19.970;2022-08-19T00:09:32;36.80;34.00
21085;DHT22;34247;50.064;19.970;2022-08-19T00:10:36;36.70;33.90
21085;DHT22;34247;50.064;19.970;2022-08-19T00:11:41;36.70;33.90
21085;DHT22;34247;50.064;19.970;2022-08-19T00:12:46;36.70;34.00
21085;DHT22;34247;50.064;19.970;2022-08-19T00:13:50;36.70;33.90
21085;DHT22;34247;50.064;19.970;2022-08-19T00:14:54;36.70;34.00
21085;DHT22;34247;50.064;19.970;2022-08-19T00:15:58;36.70;34.00
21085;DHT22;34247;50.064;19.970;2022-08-19T00:17:05;36.70;34.00
21085;DHT22;34247;50.064;19.970;2022-08-19T00:18:10;36.70;34.00
21085;DHT22;34247;50.064;19.970;2022-08-19T00:19:15;36.70;34.00
21085;DHT22;34247;50.064;19.970;2022-08-19T00:20:21;36.70;34.00
21085;DHT22;34247;50.064;19.970;2022-08-19T00:21:26;36.70;34.00
21085;DHT22;34247;50.064;19.970;2022-08-19T00:22:30;36.60;34.00
21085;DHT22;34247;50.064;19.970;2022-08-19T00:23:35;36.60;34.00
21085;DHT22;34247;50.064;19.970;2022-08-19T00:24:39;36.60;34.00
21085;DHT22;34247;50.064;19.970;2022-08-19T00:25:53;36.60;34.10
21085;DHT22;34247;50.064;19.970;2022-08-19T00:26:57;36.60;34.00
21085;DHT22;34247;50.064;19.970;2022-08-19T00:28:22;36.60;34.10
21085;DHT22;34247;50.064;19.970;2022-08-19T00:29:26;36.60;34.10
21085;DHT22;34247;50.064;19.970;2022-08-19T00:30:30;36.60;34.10
21085;DHT22;34247;50.064;19.970;2022-08-19T00:31:34;36.60;34.10
21085;DHT22;34247;50.064;19.970;2022-08-19T00:32:39;36.60;34.10
21085;DHT22;34247;50.064;19.970;2022-08-19T00:33:43;36.60;34.20
21085;DHT22;34247;50.064;19.970;2022-08-19T00:34:47;36.60;34.20
21085;DHT22;34247;50.064;19.970;2022-08-19T00:35:52;36.50;34.20
21085;DHT22;34247;50.064;19.970;2022-08-19T00:36:58;36.50;34.20
21085;DHT22;34247;50.064;19.970;2022-08-19T00:38:02;36.50;34.30
21085;DHT22;34247;50.064;19.970;2022-08-19T00:39:08;36.50;34.30
21085;DHT22;34247;50.064;19.970;2022-08-19T00:40:13;36.50;34.30
21085;DHT22;34247;50.064;19.970;2022-08-19T00:41:20;36.50;34.40
21085;DHT22;34247;50.064;19.970;2022-08-19T00:42:26;36.50;34.40
21085;DHT22;34247;50.064;19.970;2022-08-19T00:43:32;36.50;34.40
21085;DHT22;34247;50.064;19.970;2022-08-19T00:44:36;36.50;34.40
21085;DHT22;34247;50.064;19.970;2022-08-19T00:45:41;36.50;34.50
21085;DHT22;34247;50.064;19.970;2022-08-19T00:46:49;36.50;34.50
21085;DHT22;34247;50.064;19.970;2022-08-19T00:48:00;36.50;34.50
21085;DHT22;34247;50.064;19.970;2022-08-19T00:50:39;36.40;34.50
21085;DHT22;34247;50.064;19.970;2022-08-19T00:52:02;36.40;34.50
21085;DHT22;34247;50.064;19.970;2022-08-19T00:53:28;36.40;34.60
21085;DHT22;34247;50.064;19.970;2022-08-19T00:54:37;36.40;34.60
21085;DHT22;34247;50.064;19.970;2022-08-19T00:55:45;36.40;34.60
21085;DHT22;34247;50.064;19.970;2022-08-19T00:56:54;36.40;34.60
21085;DHT22;34247;50.064;19.970;2022-08-19T00:58:11;36.40;34.60
21085;DHT22;34247;50.064;19.970;2022-08-19T00:59:18;36.40;34.60
21085;DHT22;34247;50.064;19.970;2022-08-19T01:00:43;36.40;34.70
21085;DHT22;34247;50.064;19.970;2022-08-19T01:01:49;36.40;34.70
21085;DHT22;34247;50.064;19.970;2022-08-19T01:02:54;36.40;34.70
21085;DHT22;34247;50.064;19.970;2022-08-19T01:03:58;36.40;34.70
21085;DHT22;34247;50.064;19.970;2022-08-19T01:05:06;36.40;34.70
21085;DHT22;34247;50.064;19.970;2022-08-19T01:06:14;36.40;34.60
21085;DHT22;34247;50.064;19.970;2022-08-19T01:07:23;36.40;34.70
21085;DHT22;34247;50.064;19.970;2022-08-19T01:08:28;36.40;34.70
21085;DHT22;34247;50.064;19.970;2022-08-19T01:09:31;36.40;34.70
21085;DHT22;34247;50.064;19.970;2022-08-19T01:10:43;36.40;34.80
21085;DHT22;34247;50.064;19.970;2022-08-19T01:11:55;36.40;34.70
21085;DHT22;34247;50.064;19.970;2022-08-19T01:13:01;36.40;34.80
21085;DHT22;34247;50.064;19.970;2022-08-19T01:14:08;36.40;34.80
21085;DHT22;34247;50.064;19.970;2022-08-19T01:15:19;36.40;34.90
21085;DHT22;34247;50.064;19.970;2022-08-19T01:16:27;36.40;34.80
21085;DHT22;34247;50.064;19.970;2022-08-19T01:17:34;36.40;34.80
21085;DHT22;34247;50.064;19.970;2022-08-19T01:18:43;36.30;34.80
21085;DHT22;34247;50.064;19.970;2022-08-19T01:19:48;36.40;35.00
21085;DHT22;34247;50.064;19.970;2022-08-19T01:20:55;36.30;34.90
21085;DHT22;34247;50.064;19.970;2022-08-19T01:22:12;36.30;34.90
21085;DHT22;34247;50.064;19.970;2022-08-19T01:23:33;36.30;34.90
21085;DHT22;34247;50.064;19.970;2022-08-19T01:24:46;36.30;35.00
21085;DHT22;34247;50.064;19.970;2022-08-19T01:25:52;36.30;35.00
21085;DHT22;34247;50.064;19.970;2022-08-19T01:26:58;36.20;35.00
21085;DHT22;34247;50.064;19.970;2022-08-19T01:28:02;36.30;35.10
21085;DHT22;34247;50.064;19.970;2022-08-19T01:29:13;36.20;35.70
21085;DHT22;34247;50.064;19.970;2022-08-19T01:30:23;36.20;35.00
21085;DHT22;34247;50.064;19.970;2022-08-19T01:31:30;36.20;35.00
21085;DHT22;34247;50.064;19.970;2022-08-19T01:32:35;36.20;35.10
21085;DHT22;34247;50.064;19.970;2022-08-19T01:33:39;36.20;35.10
21085;DHT22;34247;50.064;19.970;2022-08-19T01:34:45;36.20;35.10
21085;DHT22;34247;50.064;19.970;2022-08-19T01:35:50;36.20;35.10
21085;DHT22;34247;50.064;19.970;2022-08-19T01:36:54;36.20;35.10
21085;DHT22;34247;50.064;19.970;2022-08-19T01:38:02;36.20;35.80
21085;DHT22;34247;50.064;19.970;2022-08-19T01:39:16;36.20;35.10
21085;DHT22;34247;50.064;19.970;2022-08-19T01:40:29;36.20;35.20
21085;DHT22;34247;50.064;19.970;2022-08-19T01:41:36;36.20;35.20
21085;DHT22;34247;50.064;19.970;2022-08-19T01:42:40;36.20;35.20
21085;DHT22;34247;50.064;19.970;2022-08-19T01:43:45;36.10;35.10
21085;DHT22;34247;50.064;19.970;2022-08-19T01:45:09;36.10;35.10
21085;DHT22;34247;50.064;19.970;2022-08-19T01:46:13;36.10;35.10
21085;DHT22;34247;50.064;19.970;2022-08-19T01:47:17;36.10;35.10
21085;DHT22;34247;50.064;19.970;2022-08-19T01:48:21;36.10;35.10
21085;DHT22;34247;50.064;19.970;2022-08-19T01:49:27;36.10;35.10
21085;DHT22;34247;50.064;19.970;2022-08-19T01:50:32;36.10;35.10
21085;DHT22;34247;50.064;19.970;2022-08-19T01:51:37;36.10;35.10
21085;DHT22;34247;50.064;19.970;2022-08-19T01:52:44;36.10;35.20
21085;DHT22;34247;50.064;19.970;2022-08-19T01:53:49;36.10;35.20
21085;DHT22;34247;50.064;19.970;2022-08-19T01:54:54;36.10;35.20
21085;DHT22;34247;50.064;19.970;2022-08-19T01:55:58;36.10;35.30
21085;DHT22;34247;50.064;19.970;2022-08-19T01:57:09;36.10;35.30
21085;DHT22;34247;50.064;19.970;2022-08-19T01:58:19;36.10;35.30
21085;DHT22;34247;50.064;19.970;2022-08-19T01:59:26;36.00;35.20
21085;DHT22;34247;50.064;19.970;2022-08-19T02:00:32;36.00;35.30
21085;DHT22;34247;50.064;19.970;2022-08-19T02:01:36;36.00;35.30
21085;DHT22;34247;50.064;19.970;2022-08-19T02:02:41;36.00;35.30
21085;DHT22;34247;50.064;19.970;2022-08-19T02:03:46;36.10;35.30
21085;DHT22;34247;50.064;19.970;2022-08-19T02:04:51;36.10;35.40
21085;DHT22;34247;50.064;19.970;2022-08-19T02:05:59;36.00;35.30
21085;DHT22;34247;50.064;19.970;2022-08-19T02:07:06;36.00;35.40
21085;DHT22;34247;50.064;19.970;2022-08-19T02:08:12;36.00;35.40
21085;DHT22;34247;50.064;19.970;2022-08-19T02:09:16;36.00;35.40
21085;DHT22;34247;50.064;19.970;2022-08-19T02:10:21;36.00;35.40
21085;DHT22;34247;50.064;19.970;2022-08-19T02:11:29;36.00;35.40
21085;DHT22;34247;50.064;19.970;2022-08-19T02:12:36;35.90;35.40
21085;DHT22;34247;50.064;19.970;2022-08-19T02:13:40;35.90;35.40
21085;DHT22;34247;50.064;19.970;2022-08-19T02:14:45;35.90;35.40
21085;DHT22;34247;50.064;19.970;2022-08-19T02:15:49;36.00;35.50
21085;DHT22;34247;50.064;19.970;2022-08-19T02:16:53;36.00;35.50
21085;DHT22;34247;50.064;19.970;2022-08-19T02:17:58;36.00;35.50
21085;DHT22;34247;50.064;19.970;2022-08-19T02:19:03;36.00;35.50
21085;DHT22;34247;50.064;19.970;2022-08-19T02:20:08;36.00;35.50
21085;DHT22;34247;50.064;19.970;2022-08-19T02:21:14;35.90;35.50
21085;DHT22;34247;50.064;19.970;2022-08-19T02:22:20;36.00;35.60
21085;DHT22;34247;50.064;19.970;2022-08-19T02:23:24;35.90;35.50
21085;DHT22;34247;50.064;19.970;2022-08-19T02:24:28;35.90;35.60
21085;DHT22;34247;50.064;19.970;2022-08-19T02:25:32;35.90;35.50
21085;DHT22;34247;50.064;19.970;2022-08-19T02:26:36;35.90;35.60
21085;DHT22;34247;50.064;19.970;2022-08-19T02:27:42;35.90;35.50
21085;DHT22;34247;50.064;19.970;2022-08-19T02:28:46;35.90;35.60
21085;DHT22;34247;50.064;19.970;2022-08-19T02:29:52;35.80;35.50
21085;DHT22;34247;50.064;19.970;2022-08-19T02:30:57;35.90;35.70
21085;DHT22;34247;50.064;19.970;2022-08-19T02:32:04;35.80;35.50
21085;DHT22;34247;50.064;19.970;2022-08-19T02:33:08;35.80;35.60
21085;DHT22;34247;50.064;19.970;2022-08-19T02:34:12;35.80;35.60
21085;DHT22;34247;50.064;19.970;2022-08-19T02:35:16;35.80;35.70
21085;DHT22;34247;50.064;19.970;2022-08-19T02:36:20;35.80;35.80
21085;DHT22;34247;50.064;19.970;2022-08-19T02:37:24;35.70;35.70
21085;DHT22;34247;50.064;19.970;2022-08-19T02:38:47;35.70;35.80
21085;DHT22;34247;50.064;19.970;2022-08-19T02:39:58;35.70;35.80
21085;DHT22;34247;50.064;19.970;2022-08-19T02:41:11;35.60;35.80
21085;DHT22;34247;50.064;19.970;2022-08-19T02:42:21;35.60;35.80
21085;DHT22;34247;50.064;19.970;2022-08-19T02:43:26;35.60;35.90
21085;DHT22;34247;50.064;19.970;2022-08-19T02:44:35;35.60;36.00
21085;DHT22;34247;50.064;19.970;2022-08-19T02:45:39;35.60;36.00
21085;DHT22;34247;50.064;19.970;2022-08-19T02:46:46;35.60;36.10
21085;DHT22;34247;50.064;19.970;2022-08-19T02:47:53;35.60;36.10
21085;DHT22;34247;50.064;19.970;2022-08-19T02:49:01;35.60;36.10
21085;DHT22;34247;50.064;19.970;2022-08-19T02:50:09;35.60;36.10
21085;DHT22;34247;50.064;19.970;2022-08-19T02:51:19;35.50;36.10
21085;DHT22;34247;50.064;19.970;2022-08-19T02:52:25;35.50;36.10
21085;DHT22;34247;50.064;19.970;2022-08-19T02:53:31;35.50;36.20
21085;DHT22;34247;50.064;19.970;2022-08-19T02:54:35;35.50;36.20
21085;DHT22;34247;50.064;19.970;2022-08-19T02:55:44;35.40;36.10
21085;DHT22;34247;50.064;19.970;2022-08-19T02:56:49;35.40;36.10
21085;DHT22;34247;50.064;19.970;2022-08-19T02:57:53;35.40;36.20
21085;DHT22;34247;50.064;19.970;2022-08-19T02:58:58;35.40;36.30
21085;DHT22;34247;50.064;19.970;2022-08-19T03:00:06;35.40;36.30
21085;DHT22;34247;50.064;19.970;2022-08-19T03:01:23;35.40;36.30
21085;DHT22;34247;50.064;19.970;2022-08-19T03:02:33;35.40;36.20
21085;DHT22;34247;50.064;19.970;2022-08-19T03:03:37;35.30;36.20
21085;DHT22;34247;50.064;19.970;2022-08-19T03:04:42;35.30;36.30
21085;DHT22;34247;50.064;19.970;2022-08-19T03:05:46;35.30;36.30
21085;DHT22;34247;50.064;19.970;2022-08-19T03:06:59;35.30;36.40
21085;DHT22;34247;50.064;19.970;2022-08-19T03:08:14;35.30;36.30
21085;DHT22;34247;50.064;19.970;2022-08-19T03:09:20;35.30;36.40
21085;DHT22;34247;50.064;19.970;2022-08-19T03:10:24;35.30;36.50
21085;DHT22;34247;50.064;19.970;2022-08-19T03:11:30;35.30;36.50
21085;DHT22;34247;50.064;19.970;2022-08-19T03:12:37;35.30;36.50
21085;DHT22;34247;50.064;19.970;2022-08-19T03:13:42;35.30;36.40
21085;DHT22;34247;50.064;19.970;2022-08-19T03:14:47;35.30;36.50
21085;DHT22;34247;50.064;19.970;2022-08-19T03:15:51;35.30;36.40
21085;DHT22;34247;50.064;19.970;2022-08-19T03:16:55;35.30;36.40
21085;DHT22;34247;50.064;19.970;2022-08-19T03:17:59;35.30;36.40
21085;DHT22;34247;50.064;19.970;2022-08-19T03:19:04;35.30;36.50
21085;DHT22;34247;50.064;19.970;2022-08-19T03:20:09;35.20;36.40
21085;DHT22;34247;50.064;19.970;2022-08-19T03:21:19;35.20;36.40
21085;DHT22;34247;50.064;19.970;2022-08-19T03:22:26;35.20;36.40
21085;DHT22;34247;50.064;19.970;2022-08-19T03:23:30;35.20;36.40
21085;DHT22;34247;50.064;19.970;2022-08-19T03:24:34;35.30;36.50
21085;DHT22;34247;50.064;19.970;2022-08-19T03:25:42;35.20;36.50
21085;DHT22;34247;50.064;19.970;2022-08-19T03:26:51;35.30;36.60
21085;DHT22;34247;50.064;19.970;2022-08-19T03:27:58;35.20;36.60
21085;DHT22;34247;50.064;19.970;2022-08-19T03:29:04;35.20;36.50
21085;DHT22;34247;50.064;19.970;2022-08-19T03:30:11;35.20;36.50
21085;DHT22;34247;50.064;19.970;2022-08-19T03:31:25;35.20;36.50
21085;DHT22;34247;50.064;19.970;2022-08-19T03:32:47;35.20;36.40
21085;DHT22;34247;50.064;19.970;2022-08-19T03:33:59;35.20;36.50
21085;DHT22;34247;50.064;19.970;2022-08-19T03:35:08;35.20;36.50
21085;DHT22;34247;50.064;19.970;2022-08-19T03:36:15;35.20;36.50
21085;DHT22;34247;50.064;19.970;2022-08-19T03:37:26;35.20;36.50
21085;DHT22;34247;50.064;19.970;2022-08-19T03:38:30;35.20;36.50
21085;DHT22;34247;50.064;19.970;2022-08-19T03:39:37;35.20;36.50
21085;DHT22;34247;50.064;19.970;2022-08-19T03:40:42;35.20;36.50
21085;DHT22;34247;50.064;19.970;2022-08-19T03:41:47;35.20;36.60
21085;DHT22;34247;50.064;19.970;2022-08-19T03:43:13;35.30;36.60
21085;DHT22;34247;50.064;19.970;2022-08-19T03:44:22;35.20;36.60
21085;DHT22;34247;50.064;19.970;2022-08-19T03:45:27;35.20;36.50
21085;DHT22;34247;50.064;19.970;2022-08-19T03:46:33;35.20;36.50
21085;DHT22;34247;50.064;19.970;2022-08-19T03:47:37;35.20;36.70
21085;DHT22;34247;50.064;19.970;2022-08-19T03:48:43;35.20;36.50
21085;DHT22;34247;50.064;19.970;2022-08-19T03:49:47;35.20;36.50
21085;DHT22;34247;50.064;19.970;2022-08-19T03:50:51;35.20;36.50
21085;DHT22;34247;50.064;19.970;2022-08-19T03:51:57;35.20;36.50
21085;DHT22;34247;50.064;19.970;2022-08-19T03:53:03;35.20;36.50
21085;DHT22;34247;50.064;19.970;2022-08-19T03:54:10;35.20;36.50
21085;DHT22;34247;50.064;19.970;2022-08-19T03:55:18;35.30;36.50
21085;DHT22;34247;50.064;19.970;2022-08-19T03:56:22;35.30;36.60
21085;DHT22;34247;50.064;19.970;2022-08-19T03:57:29;35.20;36.50
21085;DHT22;34247;50.064;19.970;2022-08-19T03:58:34;35.30;36.50
21085;DHT22;34247;50.064;19.970;2022-08-19T03:59:39;35.30;36.50
21085;DHT22;34247;50.064;19.970;2022-08-19T04:00:43;35.30;36.50
21085;DHT22;34247;50.064;19.970;2022-08-19T04:01:47;35.30;36.50
21085;DHT22;34247;50.064;19.970;2022-08-19T04:02:51;35.30;36.50
21085;DHT22;34247;50.064;19.970;2022-08-19T04:04:01;35.30;36.50
21085;DHT22;34247;50.064;19.970;2022-08-19T04:05:07;35.30;36.50
21085;DHT22;34247;50.064;19.970;2022-08-19T04:07:35;35.30;36.40
21085;DHT22;34247;50.064;19.970;2022-08-19T04:08:43;35.30;36.50
21085;DHT22;34247;50.064;19.970;2022-08-19T04:09:49;35.30;36.40
21085;DHT22;34247;50.064;19.970;2022-08-19T04:10:55;35.30;36.40
21085;DHT22;34247;50.064;19.970;2022-08-19T04:11:59;35.30;36.50
21085;DHT22;34247;50.064;19.970;2022-08-19T04:13:04;35.30;36.40
21085;DHT22;34247;50.064;19.970;2022-08-19T04:14:13;35.30;36.40
21085;DHT22;34247;50.064;19.970;2022-08-19T04:15:20;35.40;36.40
21085;DHT22;34247;50.064;19.970;2022-08-19T04:16:28;35.30;36.40
21085;DHT22;34247;50.064;19.970;2022-08-19T04:17:37;35.30;36.40
21085;DHT22;34247;50.064;19.970;2022-08-19T04:18:41;35.30;36.40
21085;DHT22;34247;50.064;19.970;2022-08-19T04:19:45;35.30;36.30
21085;DHT22;34247;50.064;19.970;2022-08-19T04:20:49;35.30;36.40
21085;DHT22;34247;50.064;19.970;2022-08-19T04:21:54;35.30;36.40
21085;DHT22;34247;50.064;19.970;2022-08-19T04:22:58;35.40;36.40
21085;DHT22;34247;50.064;19.970;2022-08-19T04:24:03;35.40;36.40
21085;DHT22;34247;50.064;19.970;2022-08-19T04:25:08;35.40;36.50
21085;DHT22;34247;50.064;19.970;2022-08-19T04:26:15;35.40;36.40
21085;DHT22;34247;50.064;19.970;2022-08-19T04:27:22;35.40;36.40
21085;DHT22;34247;50.064;19.970;2022-08-19T04:28:26;35.40;36.30
21085;DHT22;34247;50.064;19.970;2022-08-19T04:29:30;35.40;36.40
21085;DHT22;34247;50.064;19.970;2022-08-19T04:30:45;35.40;36.30
21085;DHT22;34247;50.064;19.970;2022-08-19T04:31:52;35.40;36.30
21085;DHT22;34247;50.064;19.970;2022-08-19T04:32:59;35.30;36.30
21085;DHT22;34247;50.064;19.970;2022-08-19T04:34:08;35.40;36.40
21085;DHT22;34247;50.064;19.970;2022-08-19T04:35:17;35.40;36.30
21085;DHT22;34247;50.064;19.970;2022-08-19T04:36:29;35.40;36.30
21085;DHT22;34247;50.064;19.970;2022-08-19T04:37:34;35.40;36.40
21085;DHT22;34247;50.064;19.970;2022-08-19T04:38:39;35.30;36.30
21085;DHT22;34247;50.064;19.970;2022-08-19T04:39:43;35.40;36.40
21085;DHT22;34247;50.064;19.970;2022-08-19T04:41:05;35.40;36.40
21085;DHT22;34247;50.064;19.970;2022-08-19T04:42:28;35.40;36.40
21085;DHT22;34247;50.064;19.970;2022-08-19T04:43:45;35.40;36.40
21085;DHT22;34247;50.064;19.970;2022-08-19T04:44:52;35.40;36.50
21085;DHT22;34247;50.064;19.970;2022-08-19T04:45:56;35.30;36.50
21085;DHT22;34247;50.064;19.970;2022-08-19T04:47:03;35.40;36.40
21085;DHT22;34247;50.064;19.970;2022-08-19T04:48:13;35.30;36.50
21085;DHT22;34247;50.064;19.970;2022-08-19T04:49:29;35.30;36.50
21085;DHT22;34247;50.064;19.970;2022-08-19T04:50:33;35.30;36.60
21085;DHT22;34247;50.064;19.970;2022-08-19T04:51:40;35.30;36.60
21085;DHT22;34247;50.064;19.970;2022-08-19T04:52:46;35.30;36.60
21085;DHT22;34247;50.064;19.970;2022-08-19T04:53:50;35.30;36.50
21085;DHT22;34247;50.064;19.970;2022-08-19T04:54:55;35.30;36.60
21085;DHT22;34247;50.064;19.970;2022-08-19T04:56:07;35.30;36.50
21085;DHT22;34247;50.064;19.970;2022-08-19T04:57:14;35.30;36.50
21085;DHT22;34247;50.064;19.970;2022-08-19T04:58:18;35.40;36.50
21085;DHT22;34247;50.064;19.970;2022-08-19T04:59:22;35.40;36.50
21085;DHT22;34247;50.064;19.970;2022-08-19T05:00:29;35.40;36.30
21085;DHT22;34247;50.064;19.970;2022-08-19T05:01:37;35.50;36.40
21085;DHT22;34247;50.064;19.970;2022-08-19T05:02:41;35.40;36.40
21085;DHT22;34247;50.064;19.970;2022-08-19T05:03:47;35.40;36.40
21085;DHT22;34247;50.064;19.970;2022-08-19T05:04:56;35.40;36.40
21085;DHT22;34247;50.064;19.970;2022-08-19T05:06:07;35.40;36.50
21085;DHT22;34247;50.064;19.970;2022-08-19T05:07:13;35.40;36.40
21085;DHT22;34247;50.064;19.970;2022-08-19T05:08:20;35.30;36.40
21085;DHT22;34247;50.064;19.970;2022-08-19T05:09:34;35.40;36.50
21085;DHT22;34247;50.064;19.970;2022-08-19T05:10:58;35.30;36.40
21085;DHT22;34247;50.064;19.970;2022-08-19T05:12:02;35.40;36.50
21085;DHT22;34247;50.064;19.970;2022-08-19T05:13:07;35.40;36.50
21085;DHT22;34247;50.064;19.970;2022-08-19T05:14:12;35.40;36.40
21085;DHT22;34247;50.064;19.970;2022-08-19T05:15:16;35.40;36.50
21085;DHT22;34247;50.064;19.970;2022-08-19T05:16:22;35.40;36.50
21085;DHT22;34247;50.064;19.970;2022-08-19T05:17:27;35.50;36.50
21085;DHT22;34247;50.064;19.970;2022-08-19T05:18:37;35.40;37.10
21085;DHT22;34247;50.064;19.970;2022-08-19T05:20:00;35.50;36.40
21085;DHT22;34247;50.064;19.970;2022-08-19T05:21:23;35.40;36.30
21085;DHT22;34247;50.064;19.970;2022-08-19T05:22:47;35.50;36.50
21085;DHT22;34247;50.064;19.970;2022-08-19T05:23:51;35.50;36.40
21085;DHT22;34247;50.064;19.970;2022-08-19T05:24:55;35.50;36.40
21085;DHT22;34247;50.064;19.970;2022-08-19T05:26:15;35.50;36.40
21085;DHT22;34247;50.064;19.970;2022-08-19T05:27:19;35.60;36.50
21085;DHT22;34247;50.064;19.970;2022-08-19T05:28:23;35.60;36.50
21085;DHT22;34247;50.064;19.970;2022-08-19T05:29:28;35.60;36.50
21085;DHT22;34247;50.064;19.970;2022-08-19T05:30:38;35.60;36.40
21085;DHT22;34247;50.064;19.970;2022-08-19T05:31:50;35.70;36.50
21085;DHT22;34247;50.064;19.970;2022-08-19T05:32:55;35.70;36.50
21085;DHT22;34247;50.064;19.970;2022-08-19T05:33:59;35.70;36.50
21085;DHT22;34247;50.064;19.970;2022-08-19T05:35:04;35.70;36.30
21085;DHT22;34247;50.064;19.970;2022-08-19T05:36:10;35.70;36.30
21085;DHT22;34247;50.064;19.970;2022-08-19T05:37:14;35.80;36.30
21085;DHT22;34247;50.064;19.970;2022-08-19T05:38:19;35.80;36.30
21085;DHT22;34247;50.064;19.970;2022-08-19T05:39:26;35.80;36.30
21085;DHT22;34247;50.064;19.970;2022-08-19T05:40:35;35.90;36.10
21085;DHT22;34247;50.064;19.970;2022-08-19T05:41:47;35.90;36.10
21085;DHT22;34247;50.064;19.970;2022-08-19T05:42:54;35.90;36.20
21085;DHT22;34247;50.064;19.970;2022-08-19T05:44:00;36.00;36.40
21085;DHT22;34247;50.064;19.970;2022-08-19T05:45:09;36.10;36.30
21085;DHT22;34247;50.064;19.970;2022-08-19T05:46:18;36.10;36.10
21085;DHT22;34247;50.064;19.970;2022-08-19T05:47:31;36.20;35.90
21085;DHT22;34247;50.064;19.970;2022-08-19T05:48:36;36.20;35.70
21085;DHT22;34247;50.064;19.970;2022-08-19T05:49:40;36.30;35.70
21085;DHT22;34247;50.064;19.970;2022-08-19T05:50:45;36.30;35.60
21085;DHT22;34247;50.064;19.970;2022-08-19T05:51:50;36.40;35.50
21085;DHT22;34247;50.064;19.970;2022-08-19T05:52:55;36.40;35.30
21085;DHT22;34247;50.064;19.970;2022-08-19T05:54:01;36.50;35.40
21085;DHT22;34247;50.064;19.970;2022-08-19T05:55:06;36.50;35.20
21085;DHT22;34247;50.064;19.970;2022-08-19T05:56:14;36.60;35.20
21085;DHT22;34247;50.064;19.970;2022-08-19T05:57:23;36.60;35.10
21085;DHT22;34247;50.064;19.970;2022-08-19T05:58:29;36.70;35.10
21085;DHT22;34247;50.064;19.970;2022-08-19T05:59:33;36.80;35.20
21085;DHT22;34247;50.064;19.970;2022-08-19T06:00:43;36.80;35.00
21085;DHT22;34247;50.064;19.970;2022-08-19T06:01:49;36.90;35.10
21085;DHT22;34247;50.064;19.970;2022-08-19T06:02:57;36.90;34.90
21085;DHT22;34247;50.064;19.970;2022-08-19T06:04:13;37.00;34.70
21085;DHT22;34247;50.064;19.970;2022-08-19T06:05:17;37.10;34.70
21085;DHT22;34247;50.064;19.970;2022-08-19T06:06:21;37.20;34.30
21085;DHT22;34247;50.064;19.970;2022-08-19T06:07:25;37.20;34.10
21085;DHT22;34247;50.064;19.970;2022-08-19T06:08:31;37.30;34.00
21085;DHT22;34247;50.064;19.970;2022-08-19T06:09:40;37.40;34.00
21085;DHT22;34247;50.064;19.970;2022-08-19T06:12:28;37.50;33.80
21085;DHT22;34247;50.064;19.970;2022-08-19T06:13:36;37.50;33.70
21085;DHT22;34247;50.064;19.970;2022-08-19T06:14:40;37.60;33.60
21085;DHT22;34247;50.064;19.970;2022-08-19T06:15:46;37.70;33.60
21085;DHT22;34247;50.064;19.970;2022-08-19T06:16:51;37.70;33.50
21085;DHT22;34247;50.064;19.970;2022-08-19T06:17:58;37.80;33.40
21085;DHT22;34247;50.064;19.970;2022-08-19T06:19:04;37.80;33.20
21085;DHT22;34247;50.064;19.970;2022-08-19T06:20:14;37.90;33.10
21085;DHT22;34247;50.064;19.970;2022-08-19T06:21:25;38.00;33.10
21085;DHT22;34247;50.064;19.970;2022-08-19T06:22:31;38.10;33.00
21085;DHT22;34247;50.064;19.970;2022-08-19T06:23:41;38.10;33.00
21085;DHT22;34247;50.064;19.970;2022-08-19T06:24:45;38.20;32.60
21085;DHT22;34247;50.064;19.970;2022-08-19T06:25:49;38.30;32.50
21085;DHT22;34247;50.064;19.970;2022-08-19T06:26:55;38.40;32.60
21085;DHT22;34247;50.064;19.970;2022-08-19T06:28:03;38.40;32.20
21085;DHT22;34247;50.064;19.970;2022-08-19T06:29:20;38.50;32.20
21085;DHT22;34247;50.064;19.970;2022-08-19T06:30:27;38.60;32.10
21085;DHT22;34247;50.064;19.970;2022-08-19T06:31:33;38.70;31.90
21085;DHT22;34247;50.064;19.970;2022-08-19T06:32:38;38.70;31.70
21085;DHT22;34247;50.064;19.970;2022-08-19T06:33:46;38.80;31.30
21085;DHT22;34247;50.064;19.970;2022-08-19T06:34:52;38.90;31.30
21085;DHT22;34247;50.064;19.970;2022-08-19T06:35:56;39.00;31.20
21085;DHT22;34247;50.064;19.970;2022-08-19T06:37:01;39.10;31.10
21085;DHT22;34247;50.064;19.970;2022-08-19T06:38:07;39.20;31.00
21085;DHT22;34247;50.064;19.970;2022-08-19T06:39:16;39.20;30.70
21085;DHT22;34247;50.064;19.970;2022-08-19T06:40:23;39.30;30.70
21085;DHT22;34247;50.064;19.970;2022-08-19T06:41:28;39.50;30.50
21085;DHT22;34247;50.064;19.970;2022-08-19T06:42:34;39.50;30.50
21085;DHT22;34247;50.064;19.970;2022-08-19T06:43:40;39.60;30.20
21085;DHT22;34247;50.064;19.970;2022-08-19T06:44:48;39.70;30.30
21085;DHT22;34247;50.064;19.970;2022-08-19T06:45:55;39.80;30.10
21085;DHT22;34247;50.064;19.970;2022-08-19T06:47:03;39.80;29.80
21085;DHT22;34247;50.064;19.970;2022-08-19T06:48:17;40.00;29.70
21085;DHT22;34247;50.064;19.970;2022-08-19T06:49:23;40.00;30.00
21085;DHT22;34247;50.064;19.970;2022-08-19T06:50:28;40.10;29.50
21085;DHT22;34247;50.064;19.970;2022-08-19T06:51:32;40.20;29.50
21085;DHT22;34247;50.064;19.970;2022-08-19T06:52:44;40.30;29.50
21085;DHT22;34247;50.064;19.970;2022-08-19T06:53:54;40.30;29.30
21085;DHT22;34247;50.064;19.970;2022-08-19T06:54:59;40.50;29.40
21085;DHT22;34247;50.064;19.970;2022-08-19T06:56:09;40.50;29.20
21085;DHT22;34247;50.064;19.970;2022-08-19T06:57:14;40.60;29.10
21085;DHT22;34247;50.064;19.970;2022-08-19T06:58:18;40.70;29.10
21085;DHT22;34247;50.064;19.970;2022-08-19T06:59:24;40.80;29.00
21085;DHT22;34247;50.064;19.970;2022-08-19T07:00:33;40.90;28.80
21085;DHT22;34247;50.064;19.970;2022-08-19T07:01:45;41.00;28.50
21085;DHT22;34247;50.064;19.970;2022-08-19T07:02:53;41.10;28.40